Time;durP1;ratioP1;P1;durP2;ratioP2;P2;SDS_P1;SDS_P2;PMS_P1;PMS_P2;Temp;Humidity;BMP_temperature;BMP_pressure;BME280_temperature;BME280_humidity;BME280_pressure;Samples;Min_cycle;Max_cycle;Signal;HPM_P1;HPM_P2
2022/06/07 00:01:17;;;;;;;7.05;2.17;;;;;;;21.25;42.05;99453.53;4974322;28;20132;-72
2022/06/07 00:03:42;;;;;;;3.90;2.10;;;;;;;21.23;42.14;99450.22;4974489;28;20031;-68
2022/06/07 00:06:08;;;;;;;4.43;2.00;;;;;;;21.22;42.29;99451.25;4974162;28;20408;-68
2022/06/07 00:08:33;;;;;;;3.35;2.63;;;;;;;21.19;42.21;99457.81;4974213;28;20035;-70
2022/06/07 00:10:59;;;;;;;4.88;2.90;;;;;;;21.19;42.25;99457.00;4974101;28;20034;-70
2022/06/07 00:13:25;;;;;;;5.18;2.30;;;;;;;21.18;42.41;99460.72;4973521;28;20427;-70
2022/06/07 00:15:50;;;;;;;3.45;2.45;;;;;;;21.17;42.40;99456.34;4973874;28;20034;-70
2022/06/07 00:18:16;;;;;;;5.00;2.60;;;;;;;21.18;42.50;99463.41;4974234;28;20030;-71
2022/06/07 00:20:43;;;;;;;4.25;2.47;;;;;;;21.17;42.45;99451.81;4973878;28;20026;-69
2022/06/07 00:23:13;;;;;;;5.07;2.25;;;;;;;21.17;42.61;99457.22;4974427;28;20055;-68
2022/06/07 00:25:40;;;;;;;2.88;2.20;;;;;;;21.17;42.56;99462.59;4974146;28;20069;-71
2022/06/07 00:28:06;;;;;;;8.38;2.70;;;;;;;21.14;42.75;99448.66;4974699;28;20046;-69
2022/06/07 00:30:32;;;;;;;3.63;2.40;;;;;;;21.14;42.88;99454.91;4973818;28;20066;-71
2022/06/07 00:32:58;;;;;;;5.75;2.50;;;;;;;21.17;42.89;99456.34;4972633;28;20413;-70
2022/06/07 00:35:24;;;;;;;4.80;2.67;;;;;;;21.17;42.75;99459.06;4973208;28;20045;-67
2022/06/07 00:37:50;;;;;;;5.57;2.83;;;;;;;21.18;42.95;99463.41;4973096;28;20031;-67
2022/06/07 00:40:16;;;;;;;5.53;2.38;;;;;;;21.19;42.94;99451.63;4970532;28;20038;-67
2022/06/07 00:42:42;;;;;;;7.68;3.28;;;;;;;21.21;43.11;99460.34;4973651;28;20030;-69
2022/06/07 00:45:13;;;;;;;5.05;2.15;;;;;;;21.22;42.89;99459.31;4973326;28;20065;-69
2022/06/07 00:47:39;;;;;;;6.07;2.67;;;;;;;21.22;42.90;99463.84;4973842;28;20062;-69
2022/06/07 00:50:52;;;;;;;11.65;2.83;;;;;;;21.24;43.09;99461.81;4974122;28;20528;-70
2022/06/07 00:53:27;;;;;;;4.45;2.15;;;;;;;21.19;43.10;99459.69;4961280;28;20058;-69
2022/06/07 00:55:53;;;;;;;9.35;2.33;;;;;;;21.19;43.12;99465.06;4973600;28;20058;-70
2022/06/07 00:58:20;;;;;;;7.90;2.28;;;;;;;21.17;43.20;99454.53;4974008;28;20044;-69
2022/06/07 01:00:45;;;;;;;3.63;2.10;;;;;;;21.17;43.04;99459.06;4973468;28;20090;-70
2022/06/07 01:03:12;;;;;;;5.82;2.60;;;;;;;21.17;43.04;99467.97;4973764;28;20038;-67
2022/06/07 01:05:37;;;;;;;6.03;3.03;;;;;;;21.17;43.06;99459.06;4973878;28;20041;-67
2022/06/07 01:10:48;;;;;;;4.88;2.00;;;;;;;21.14;42.90;99456.75;4973492;28;20049;-67
2022/06/07 01:13:17;;;;;;;7.68;2.60;;;;;;;21.16;42.92;99465.44;4973884;28;20030;-68
2022/06/07 01:15:45;;;;;;;4.97;2.20;;;;;;;21.13;42.90;99464.00;4973782;28;20405;-68
2022/06/07 01:18:10;;;;;;;3.47;1.65;;;;;;;21.14;42.90;99454.06;4973471;28;20114;-67
2022/06/07 01:20:36;;;;;;;10.77;2.75;;;;;;;21.12;43.04;99448.03;4973937;28;20129;-68
2022/06/07 01:23:01;;;;;;;4.40;1.95;;;;;;;21.12;43.01;99450.72;4973664;28;20026;-68
2022/06/07 01:25:28;;;;;;;4.40;2.20;;;;;;;21.11;43.07;99451.72;4973807;28;20077;-68
2022/06/07 01:27:53;;;;;;;4.32;1.75;;;;;;;21.12;43.00;99453.41;4991584;28;20056;-68
2022/06/07 01:30:19;;;;;;;4.10;2.05;;;;;;;21.11;42.76;99460.66;4992836;28;20038;-67
2022/06/07 01:32:44;;;;;;;5.93;1.80;;;;;;;21.11;42.89;99462.50;4968227;28;20037;-70
2022/06/07 01:35:10;;;;;;;3.75;2.47;;;;;;;21.13;42.95;99468.53;4954191;28;20034;-69
2022/06/07 01:37:36;;;;;;;2.20;1.85;;;;;;;21.11;42.90;99465.19;4954051;28;20061;-68
2022/06/07 01:42:46;;;;;;;2.70;1.85;;;;;;;21.10;42.71;99472.44;4954425;29;20576;-68
2022/06/07 01:45:11;;;;;;;3.53;1.50;;;;;;;21.09;42.86;99476.16;4954375;29;20031;-68
2022/06/07 01:47:38;;;;;;;2.72;1.70;;;;;;;21.09;42.78;99478.03;4962890;28;20068;-67
2022/06/07 01:50:05;;;;;;;6.93;1.65;;;;;;;21.08;42.83;99474.47;4973290;28;20045;-67
2022/06/07 01:52:33;;;;;;;3.72;1.52;;;;;;;21.08;42.83;99477.16;4973048;28;20185;-68
2022/06/07 01:55:00;;;;;;;4.20;2.08;;;;;;;21.10;42.75;99471.63;4973611;28;20027;-68
2022/06/07 01:57:28;;;;;;;2.55;1.48;;;;;;;21.08;42.67;99476.34;4973134;28;20421;-67
2022/06/07 01:59:54;;;;;;;3.35;2.10;;;;;;;21.08;42.79;99471.78;4973564;28;20030;-67
2022/06/07 02:02:19;;;;;;;2.42;1.50;;;;;;;21.07;42.64;99474.69;4973008;28;20042;-68
2022/06/07 02:04:45;;;;;;;4.20;1.90;;;;;;;21.07;42.66;99475.50;4973405;28;20031;-68
2022/06/07 02:07:13;;;;;;;2.47;1.65;;;;;;;21.07;42.55;99480.06;4973400;28;20039;-68
2022/06/07 02:09:38;;;;;;;2.47;1.48;;;;;;;21.09;42.45;99486.09;4976471;28;20490;-69
2022/06/07 02:12:04;;;;;;;4.63;1.52;;;;;;;21.09;42.47;99486.09;4976481;28;20031;-69
2022/06/07 02:14:30;;;;;;;3.20;1.88;;;;;;;21.10;42.44;99482.38;4975351;28;20034;-69
2022/06/07 02:16:56;;;;;;;2.80;1.75;;;;;;;21.12;42.35;99483.00;4991673;28;20489;-69
2022/06/07 02:19:21;;;;;;;2.83;1.35;;;;;;;21.13;42.19;99484.66;4996169;28;20038;-67
2022/06/07 02:21:47;;;;;;;3.03;1.42;;;;;;;21.14;42.16;99486.34;4995825;28;20030;-70
2022/06/07 02:24:12;;;;;;;3.95;1.80;;;;;;;21.25;42.09;99485.00;4996067;28;20545;-69
2022/06/07 02:26:48;;;;;;;4.22;1.50;;;;;;;21.45;41.59;99482.50;4995810;28;20108;-68
2022/06/07 02:29:25;;;;;;;4.90;1.83;;;;;;;21.61;41.40;99486.81;4995765;28;20112;-68
2022/06/07 02:32:00;;;;;;;1.77;1.30;;;;;;;21.83;40.83;99487.63;4990469;28;20045;-68
2022/06/07 02:34:25;;;;;;;5.93;2.03;;;;;;;22.01;40.21;99487.09;4976494;28;20050;-68
2022/06/07 02:36:55;;;;;;;4.65;1.33;;;;;;;22.12;39.87;99490.28;4975895;28;20042;-68
2022/06/07 02:39:21;;;;;;;3.88;1.50;;;;;;;22.09;39.82;99494.19;4976355;28;20476;-68
2022/06/07 02:41:48;;;;;;;3.55;1.20;;;;;;;22.06;39.88;99494.59;4976118;28;20041;-69
2022/06/07 02:44:14;;;;;;;3.33;1.20;;;;;;;21.98;39.91;99489.38;4976050;28;20039;-67
2022/06/07 02:46:39;;;;;;;1.63;1.20;;;;;;;21.92;40.20;99490.97;4975896;28;20041;-69
2022/06/07 02:51:48;;;;;;;1.50;0.90;;;;;;;21.82;40.28;99495.88;4975502;28;20058;-67
2022/06/07 02:54:14;;;;;;;1.88;1.05;;;;;;;21.78;40.41;99498.13;4976121;28;20043;-68
2022/06/07 02:56:39;;;;;;;3.95;1.30;;;;;;;21.76;40.41;99494.78;4975852;28;20045;-69
2022/06/07 02:59:05;;;;;;;2.35;1.25;;;;;;;21.77;40.33;99497.28;4975875;28;20093;-67
2022/06/07 03:01:30;;;;;;;2.78;1.20;;;;;;;21.77;40.34;99508.06;4975945;28;20077;-68
2022/06/07 03:03:58;;;;;;;4.55;1.10;;;;;;;21.81;40.43;99503.13;4975902;28;20058;-69
2022/06/07 03:06:24;;;;;;;3.15;1.45;;;;;;;21.85;40.39;99509.78;4991794;28;20432;-67
2022/06/07 03:08:49;;;;;;;3.30;1.30;;;;;;;21.91;40.21;99506.31;4994992;28;20042;-67
2022/06/07 03:11:14;;;;;;;2.80;1.20;;;;;;;22.03;39.88;99503.06;4995428;28;20046;-69
2022/06/07 03:13:40;;;;;;;4.65;1.20;;;;;;;22.28;39.45;99508.81;4994736;28;20586;-67
2022/06/07 03:16:05;;;;;;;3.50;1.30;;;;;;;22.61;38.48;99507.34;4994871;28;20049;-68
2022/06/07 03:18:31;;;;;;;4.00;1.40;;;;;;;23.01;37.68;99508.34;4994389;28;20046;-68
2022/06/07 03:20:56;;;;;;;3.90;1.27;;;;;;;23.42;37.21;99514.69;4994858;28;20038;-68
2022/06/07 03:23:22;;;;;;;4.70;1.50;;;;;;;23.79;37.20;99508.91;4994906;28;20038;-68
2022/06/07 03:25:47;;;;;;;2.28;1.13;;;;;;;24.10;36.77;99510.16;4994612;28;20473;-67
2022/06/07 03:28:12;;;;;;;2.45;1.30;;;;;;;24.36;36.34;99511.13;4994622;28;20096;-69
2022/06/07 03:30:39;;;;;;;1.52;1.20;;;;;;;24.56;36.16;99518.34;4994704;28;20042;-68
2022/06/07 03:33:05;;;;;;;2.40;1.10;;;;;;;24.60;36.38;99514.16;4979083;28;20058;-69
2022/06/07 03:35:30;;;;;;;3.63;1.25;;;;;;;24.58;36.09;99514.38;4975029;28;20081;-68
2022/06/07 03:37:55;;;;;;;5.95;1.38;;;;;;;24.58;36.42;99514.38;4975243;28;20122;-67
2022/06/07 03:43:06;;;;;;;3.45;1.58;;;;;;;24.55;35.13;99522.09;4975427;28;20648;-71
2022/06/07 03:45:32;;;;;;;3.58;1.10;;;;;;;24.53;35.03;99514.19;4975064;28;20045;-69
2022/06/07 03:47:57;;;;;;;4.28;1.33;;;;;;;24.57;35.03;99531.66;4974790;28;20474;-69
2022/06/07 03:50:23;;;;;;;4.30;1.00;;;;;;;24.60;34.80;99516.84;4975096;28;20041;-69
2022/06/07 03:52:48;;;;;;;4.68;1.20;;;;;;;24.62;34.07;99528.31;4975094;28;20061;-69
2022/06/07 03:55:14;;;;;;;2.30;0.98;;;;;;;24.57;34.47;99523.53;4987680;28;20088;-69
2022/06/07 03:57:39;;;;;;;2.10;1.00;;;;;;;24.45;33.96;99520.66;4994193;28;20042;-66
2022/06/07 04:00:08;;;;;;;3.38;1.00;;;;;;;24.35;34.28;99522.97;4994215;28;20097;-68
2022/06/07 04:02:34;;;;;;;3.20;1.15;;;;;;;24.29;34.19;99519.25;4993907;28;20375;-70
2022/06/07 04:05:00;;;;;;;2.80;1.10;;;;;;;24.20;34.03;99521.34;4994189;28;20041;-70
2022/06/07 04:10:09;;;;;;;1.77;1.10;;;;;;;24.08;34.42;99523.84;4994112;28;20037;-66
2022/06/07 04:12:35;;;;;;;1.60;0.77;;;;;;;24.03;34.75;99525.53;4993985;28;20482;-69
2022/06/07 04:15:00;;;;;;;2.92;1.10;;;;;;;23.98;34.48;99528.88;4993744;28;20034;-69
2022/06/07 04:17:26;;;;;;;1.25;0.85;;;;;;;24.02;34.24;99532.81;4993619;28;20034;-68
2022/06/07 04:19:51;;;;;;;8.68;1.88;;;;;;;24.07;34.39;99529.47;4994150;28;20041;-68
2022/06/07 04:22:18;;;;;;;4.18;1.00;;;;;;;24.10;34.13;99522.81;4979067;28;20030;-66
2022/06/07 04:24:43;;;;;;;5.93;1.60;;;;;;;24.11;34.10;99528.03;4974738;28;20105;-66
2022/06/07 04:27:08;;;;;;;1.52;0.80;;;;;;;24.16;34.16;99522.81;4974030;28;20130;-67
2022/06/07 04:29:34;;;;;;;4.22;1.20;;;;;;;24.26;34.01;99526.97;4974250;28;20041;-68
2022/06/07 04:32:00;;;;;;;4.20;0.98;;;;;;;24.41;33.86;99521.28;4973415;28;20076;-68
2022/06/07 04:34:26;;;;;;;2.80;1.15;;;;;;;24.66;34.01;99524.13;4973945;28;20383;-69
2022/06/07 04:36:52;;;;;;;3.60;1.20;;;;;;;24.93;33.94;99530.28;4974139;28;20461;-67
2022/06/07 04:39:17;;;;;;;1.25;0.68;;;;;;;25.22;34.00;99529.94;4973901;28;20070;-67
2022/06/07 04:41:42;;;;;;;2.47;0.90;;;;;;;25.46;34.33;99533.78;4973932;28;20061;-68
2022/06/07 04:44:08;;;;;;;2.25;0.80;;;;;;;25.65;34.09;99533.84;4973951;28;20405;-67
2022/06/07 04:46:34;;;;;;;1.23;0.70;;;;;;;25.82;33.83;99528.69;4974123;28;20027;-66
2022/06/07 04:48:59;;;;;;;1.98;0.60;;;;;;;25.97;33.89;99533.78;4974203;28;20448;-69
2022/06/07 04:51:28;;;;;;;2.72;0.70;;;;;;;26.08;33.68;99530.34;4973536;28;20684;-68
2022/06/07 04:53:54;;;;;;;1.75;0.95;;;;;;;26.18;33.59;99529.84;4973684;28;20031;-68
2022/06/07 04:56:22;;;;;;;2.65;0.50;;;;;;;26.26;33.55;99537.72;4974146;28;20038;-68
2022/06/07 04:58:49;;;;;;;1.20;0.70;;;;;;;26.31;33.35;99521.59;4974018;28;20037;-67
2022/06/07 05:01:23;;;;;;;1.23;0.80;;;;;;;26.38;33.44;99526.94;4974002;28;20033;-68
2022/06/07 05:03:49;;;;;;;9.93;2.67;;;;;;;26.43;33.47;99529.78;4974241;28;20026;-66
2022/06/07 05:06:23;;;;;;;2.45;1.10;;;;;;;26.46;33.29;99531.25;4973793;28;20405;-68
2022/06/07 05:08:49;;;;;;;2.15;0.80;;;;;;;26.49;33.52;99528.91;4974166;28;20030;-69
2022/06/07 05:11:15;;;;;;;2.28;0.80;;;;;;;26.52;33.52;99529.50;4973539;28;20418;-69
2022/06/07 05:13:41;;;;;;;5.00;0.88;;;;;;;26.53;33.40;99525.75;4973777;28;20035;-67
2022/06/07 05:16:07;;;;;;;1.10;0.60;;;;;;;26.55;33.49;99529.88;4972675;28;20039;-67
2022/06/07 05:18:32;;;;;;;1.75;0.55;;;;;;;26.57;33.27;99526.94;4973542;28;20062;-70
2022/06/07 05:20:58;;;;;;;1.35;0.80;;;;;;;26.57;33.50;99524.22;4977336;28;20053;-70
2022/06/07 05:23:24;;;;;;;7.00;0.80;;;;;;;26.57;33.68;99530.50;4993096;28;20397;-70
2022/06/07 05:26:20;;;;;;;2.33;0.75;;;;;;;26.55;33.69;99531.75;4992708;28;20203;-69
2022/06/07 05:28:46;;;;;;;3.08;0.75;;;;;;;26.53;33.94;99528.47;4985675;28;20038;-69
2022/06/07 05:31:11;;;;;;;2.40;0.80;;;;;;;26.51;33.71;99525.94;4993081;28;20124;-69
2022/06/07 05:33:37;;;;;;;1.60;0.70;;;;;;;26.47;33.63;99528.31;4973610;28;20041;-69
2022/06/07 05:36:04;;;;;;;3.75;0.90;;;;;;;26.46;33.79;99525.81;4973314;28;20069;-69
2022/06/07 05:38:29;;;;;;;5.07;0.88;;;;;;;26.44;33.63;99534.16;4973635;28;20090;-68
2022/06/07 05:40:54;;;;;;;2.00;0.70;;;;;;;26.41;33.56;99534.63;4973564;28;20043;-70
2022/06/07 05:43:20;;;;;;;1.08;0.50;;;;;;;26.38;33.50;99535.09;4976749;28;20375;-68
2022/06/07 05:45:50;;;;;;;2.33;0.68;;;;;;;26.32;33.67;99527.84;4977180;28;20037;-68
2022/06/07 05:48:16;;;;;;;4.03;1.38;;;;;;;26.29;33.38;99537.25;4977835;28;20438;-69
2022/06/07 05:50:48;;;;;;;3.20;0.60;;;;;;;26.27;33.48;99533.09;4976556;28;20093;-70
2022/06/07 05:53:14;;;;;;;3.30;0.98;;;;;;;26.24;33.58;99533.56;4977085;28;20031;-69
2022/06/07 05:55:40;;;;;;;1.55;0.70;;;;;;;26.20;33.46;99539.44;4976738;28;20027;-68
2022/06/07 05:58:06;;;;;;;1.83;0.50;;;;;;;26.18;33.28;99529.84;4976752;28;20092;-68
2022/06/07 06:00:31;;;;;;;4.63;0.50;;;;;;;26.16;33.23;99542.81;4976496;28;20041;-68
2022/06/07 06:02:57;;;;;;;2.28;0.60;;;;;;;26.13;32.74;99532.41;4976515;28;20031;-68
2022/06/07 06:05:22;;;;;;;2.65;0.63;;;;;;;26.10;32.98;99539.06;4976795;28;20035;-69
2022/06/07 06:10:32;;;;;;;2.05;0.50;;;;;;;26.03;32.62;99538.31;4983487;28;20030;-69
2022/06/07 06:12:57;;;;;;;2.20;0.55;;;;;;;25.99;33.03;99527.09;4996441;28;20030;-68
2022/06/07 06:15:23;;;;;;;0.65;0.40;;;;;;;25.96;33.06;99532.94;4995628;28;20057;-69
2022/06/07 06:17:48;;;;;;;1.30;0.50;;;;;;;25.89;32.78;99527.59;4995878;28;20112;-68
2022/06/07 06:20:14;;;;;;;2.75;0.70;;;;;;;25.88;32.31;99525.13;4996062;28;20050;-70
2022/06/07 06:22:39;;;;;;;2.28;0.60;;;;;;;25.80;31.59;99528.94;4995782;28;20038;-70
2022/06/07 06:25:06;;;;;;;3.10;0.73;;;;;;;25.74;32.09;99524.38;4996040;28;20038;-70
2022/06/07 06:27:33;;;;;;;3.78;0.93;;;;;;;25.66;32.61;99532.81;4995822;28;20037;-67
2022/06/07 06:29:59;;;;;;;1.90;0.43;;;;;;;25.59;32.26;99524.69;4995909;28;20045;-68
2022/06/07 06:32:24;;;;;;;1.00;0.47;;;;;;;25.56;32.40;99525.97;4985395;28;20039;-70
2022/06/07 06:34:50;;;;;;;1.10;0.60;;;;;;;25.52;31.92;99526.63;4976382;28;20031;-70
2022/06/07 06:37:16;;;;;;;0.73;0.32;;;;;;;25.49;32.26;99521.66;4976601;28;20042;-70
2022/06/07 06:39:42;;;;;;;3.38;0.95;;;;;;;25.45;32.19;99521.28;4976349;28;20062;-70
2022/06/07 06:42:07;;;;;;;6.70;0.75;;;;;;;25.40;31.79;99524.63;4975942;28;20498;-69
2022/06/07 06:44:33;;;;;;;2.25;0.40;;;;;;;25.36;31.32;99520.69;4976042;28;20034;-69
2022/06/07 06:47:01;;;;;;;1.58;0.70;;;;;;;25.31;31.24;99514.25;4975744;28;20049;-68
2022/06/07 06:49:27;;;;;;;2.80;0.70;;;;;;;25.26;30.88;99515.72;4976170;28;20146;-70
2022/06/07 06:51:54;;;;;;;2.03;0.52;;;;;;;25.22;31.08;99510.97;4975733;28;20063;-70
2022/06/07 06:54:19;;;;;;;3.72;0.98;;;;;;;25.21;30.71;99517.44;4975245;28;20113;-68
2022/06/07 06:56:47;;;;;;;1.02;0.40;;;;;;;25.19;30.66;99511.41;4975744;28;20484;-68
2022/06/07 06:59:13;;;;;;;2.28;0.70;;;;;;;25.17;30.94;99508.09;4977536;28;20057;-70
2022/06/07 07:01:39;;;;;;;3.20;0.60;;;;;;;25.14;30.84;99514.78;4995157;28;20485;-68
2022/06/07 07:04:08;;;;;;;1.60;0.50;;;;;;;25.10;30.84;99518.94;4995220;28;20030;-69
2022/06/07 07:06:34;;;;;;;1.75;0.52;;;;;;;25.06;30.80;99512.34;4995215;28;20118;-69
2022/06/07 07:09:00;;;;;;;1.38;0.50;;;;;;;25.04;30.96;99514.41;4995108;28;20113;-69
2022/06/07 07:11:28;;;;;;;7.13;1.40;;;;;;;25.01;30.70;99510.25;4994841;28;20038;-69
2022/06/07 07:13:56;;;;;;;1.42;0.70;;;;;;;25.01;31.22;99514.84;4995439;28;20026;-69
2022/06/07 07:16:25;;;;;;;2.70;0.70;;;;;;;24.97;31.02;99515.28;4994847;28;20045;-69
2022/06/07 07:18:51;;;;;;;2.30;0.45;;;;;;;24.93;31.11;99505.09;4995044;28;20411;-68
2022/06/07 07:21:20;;;;;;;5.20;0.85;;;;;;;24.93;30.96;99507.81;4988888;28;20039;-69
2022/06/07 07:23:45;;;;;;;5.95;0.70;;;;;;;24.89;31.17;99502.00;4975511;28;20039;-69
2022/06/07 07:26:17;;;;;;;3.70;0.52;;;;;;;24.88;30.96;99503.06;4975510;28;20041;-69
2022/06/07 07:28:43;;;;;;;0.85;0.40;;;;;;;24.85;31.03;99506.19;4975122;28;20034;-70
2022/06/07 07:31:14;;;;;;;4.05;0.40;;;;;;;24.85;30.66;99506.19;4975152;28;20093;-68
2022/06/07 07:33:40;;;;;;;5.88;0.80;;;;;;;24.84;31.31;99504.53;4975275;28;20035;-70
2022/06/07 07:36:06;;;;;;;2.50;0.60;;;;;;;24.82;30.97;99501.19;4975051;28;20051;-70
2022/06/07 07:38:34;;;;;;;2.33;0.50;;;;;;;24.83;30.73;99509.13;4974859;28;20037;-69
2022/06/07 07:41:00;;;;;;;2.70;1.23;;;;;;;24.83;31.29;99495.59;4974874;28;20521;-69
2022/06/07 07:43:26;;;;;;;1.23;0.50;;;;;;;24.80;31.08;99500.56;4975176;28;20066;-68
2022/06/07 07:45:54;;;;;;;0.70;0.40;;;;;;;24.82;31.32;99502.03;4975118;28;20445;-69
2022/06/07 07:48:21;;;;;;;1.40;0.52;;;;;;;24.81;31.88;99494.97;4975084;28;20054;-69
2022/06/07 07:50:47;;;;;;;1.40;0.70;;;;;;;24.83;31.40;99494.75;4974732;28;20542;-68
2022/06/07 07:53:13;;;;;;;0.93;0.30;;;;;;;24.82;31.41;99499.34;4974936;28;20185;-69
2022/06/07 07:55:49;;;;;;;1.52;0.82;;;;;;;24.81;31.04;99494.97;4974774;28;20401;-68
2022/06/07 07:58:15;;;;;;;1.45;0.60;;;;;;;24.79;30.89;99493.50;4974632;28;20117;-69
2022/06/07 08:00:45;;;;;;;1.30;0.63;;;;;;;24.78;30.71;99497.25;4975049;28;20034;-70
2022/06/07 08:03:11;;;;;;;1.40;0.57;;;;;;;24.74;30.70;99487.94;4974908;28;20042;-70
2022/06/07 08:05:38;;;;;;;3.63;0.63;;;;;;;24.73;30.94;99489.78;4974588;28;20046;-69
2022/06/07 08:08:04;;;;;;;2.55;0.40;;;;;;;24.74;31.25;99496.03;4974210;28;20035;-69
2022/06/07 08:10:29;;;;;;;1.90;0.50;;;;;;;24.73;31.43;99495.19;4974364;28;20396;-66
2022/06/07 08:12:56;;;;;;;0.52;0.20;;;;;;;24.73;30.86;99484.38;4974558;28;20481;-69
2022/06/07 08:15:23;;;;;;;5.53;0.98;;;;;;;24.73;31.01;99486.25;4974774;28;20438;-68
2022/06/07 08:17:49;;;;;;;1.55;0.35;;;;;;;24.72;31.26;99484.59;4974420;28;20093;-68
2022/06/07 08:20:15;;;;;;;1.33;0.47;;;;;;;24.72;31.07;99484.59;4974595;28;20026;-69
2022/06/07 08:22:41;;;;;;;2.30;0.73;;;;;;;24.70;30.76;99479.41;4991953;28;20034;-69
2022/06/07 08:25:10;;;;;;;1.00;0.52;;;;;;;24.68;30.66;99467.94;4992311;28;20081;-71
2022/06/07 08:27:36;;;;;;;1.05;0.57;;;;;;;24.65;31.07;99469.19;4993743;28;20030;-69
2022/06/07 08:30:04;;;;;;;1.55;0.50;;;;;;;24.65;31.02;99468.38;4993541;28;20512;-71
2022/06/07 08:32:30;;;;;;;0.85;0.30;;;;;;;24.63;30.82;99465.84;4982999;28;20371;-69
2022/06/07 08:37:39;;;;;;;1.90;0.47;;;;;;;24.61;30.84;99465.28;4973873;28;20042;-68
2022/06/07 08:40:18;;;;;;;1.50;0.57;;;;;;;24.61;30.58;99473.38;4974227;28;20526;-69
2022/06/07 08:42:58;;;;;;;1.30;0.50;;;;;;;24.62;31.23;99466.94;4974068;28;20023;-67
2022/06/07 08:45:29;;;;;;;1.08;0.40;;;;;;;24.60;31.43;99457.34;4974460;28;20027;-69
2022/06/07 08:48:10;;;;;;;0.47;0.30;;;;;;;24.61;31.86;99465.28;4973894;28;20635;-68
2022/06/07 08:50:39;;;;;;;6.07;0.60;;;;;;;24.60;32.20;99458.19;4973827;28;20070;-67
2022/06/07 08:53:11;;;;;;;1.33;0.55;;;;;;;24.62;31.82;99455.25;4973862;28;20454;-67
2022/06/07 08:55:43;;;;;;;0.70;0.40;;;;;;;24.61;31.67;99465.28;4973657;28;20045;-67
2022/06/07 08:58:17;;;;;;;1.63;0.73;;;;;;;24.60;31.59;99452.78;4974275;28;20042;-69
2022/06/07 09:00:48;;;;;;;1.45;0.50;;;;;;;24.61;32.20;99457.16;4973285;28;20034;-69
2022/06/07 09:03:50;;;;;;;1.45;0.60;;;;;;;24.61;32.15;99461.72;4972720;28;20035;-66
2022/06/07 09:06:21;;;;;;;1.40;0.50;;;;;;;24.60;32.54;99449.22;4973401;28;20125;-68
2022/06/07 09:08:54;;;;;;;0.77;0.57;;;;;;;24.60;32.63;99452.78;4973813;28;20031;-68
2022/06/07 09:14:34;;;;;;;1.20;0.50;;;;;;;24.55;30.80;99446.38;4993398;28;20069;-68
2022/06/07 09:17:10;;;;;;;2.42;0.60;;;;;;;24.51;31.42;99448.66;4994507;28;20472;-67
2022/06/07 09:19:36;;;;;;;0.50;0.40;;;;;;;24.49;31.02;99450.72;4989911;28;20042;-69
2022/06/07 09:22:08;;;;;;;3.25;0.60;;;;;;;24.47;30.88;99442.03;4958294;28;20102;-65
2022/06/07 09:24:53;;;;;;;2.67;0.70;;;;;;;24.43;30.06;99435.38;4958360;28;20433;-68
2022/06/07 09:27:22;;;;;;;4.10;0.52;;;;;;;24.37;30.08;99437.88;4970727;28;20073;-69
2022/06/07 09:29:56;;;;;;;3.08;0.80;;;;;;;24.31;29.60;99433.34;4977496;28;20121;-71
2022/06/07 09:32:27;;;;;;;2.60;0.50;;;;;;;24.27;29.56;99440.22;4973377;28;20035;-67
2022/06/07 09:35:03;;;;;;;2.85;1.23;;;;;;;24.25;30.23;99430.69;4972950;28;20093;-69
2022/06/07 09:37:46;;;;;;;6.03;1.25;;;;;;;24.24;30.23;99432.53;4957959;28;20483;-69
2022/06/07 09:40:23;;;;;;;3.60;0.93;;;;;;;24.21;29.38;99435.66;4957976;28;20054;-71
2022/06/07 09:42:57;;;;;;;1.98;0.68;;;;;;;24.16;28.92;99432.78;4965108;28;20385;-73
2022/06/07 09:45:49;;;;;;;8.48;1.10;;;;;;;24.11;28.59;99428.03;4975626;28;20031;-69
2022/06/07 09:48:32;;;;;;;4.63;0.55;;;;;;;23.99;27.59;99426.97;4968099;28;20498;-69
2022/06/07 09:51:06;;;;;;;10.32;1.30;;;;;;;23.71;26.95;99428.91;4976869;28;20138;-69
2022/06/07 09:53:34;;;;;;;0.95;0.47;;;;;;;23.49;26.82;99424.75;4976322;28;20105;-69
2022/06/07 09:56:05;;;;;;;3.88;0.60;;;;;;;23.39;26.41;99420.59;4975565;28;20040;-69
2022/06/07 09:58:55;;;;;;;1.13;0.55;;;;;;;23.25;26.44;99422.47;4976885;28;20066;-71
2022/06/07 10:01:33;;;;;;;2.85;0.70;;;;;;;23.08;26.56;99422.00;4977003;28;20045;-69
2022/06/07 10:04:23;;;;;;;3.38;0.55;;;;;;;23.00;27.06;99420.34;4976814;28;20027;-69
2022/06/07 10:06:59;;;;;;;4.55;0.60;;;;;;;23.05;27.74;99421.59;4976517;28;20078;-71
2022/06/07 10:09:40;;;;;;;4.38;0.57;;;;;;;23.16;28.20;99413.69;4976864;28;20536;-70
2022/06/07 10:12:05;;;;;;;7.47;0.50;;;;;;;23.20;27.60;99408.78;4976467;28;20113;-69
2022/06/07 10:14:39;;;;;;;6.32;0.82;;;;;;;23.17;27.11;99409.97;4976849;28;20413;-68
2022/06/07 10:17:20;;;;;;;8.82;1.40;;;;;;;23.06;27.30;99407.88;4975311;28;20520;-69
2022/06/07 10:20:00;;;;;;;1.45;0.60;;;;;;;22.96;27.36;99407.47;4973008;28;20516;-69
2022/06/07 10:22:56;;;;;;;1.73;0.88;;;;;;;22.88;26.96;99407.63;4976322;28;20469;-68
2022/06/07 10:25:38;;;;;;;2.88;0.80;;;;;;;22.73;26.75;99402.44;4969611;28;20050;-69
2022/06/07 10:28:26;;;;;;;1.35;0.60;;;;;;;22.63;26.89;99397.44;4975707;28;20084;-69
2022/06/07 10:31:01;;;;;;;1.67;0.70;;;;;;;22.60;26.99;99395.97;4976386;28;20035;-68
2022/06/07 10:33:38;;;;;;;3.70;0.73;;;;;;;22.59;26.57;99398.84;4975903;28;20038;-69
2022/06/07 10:36:25;;;;;;;1.98;0.55;;;;;;;22.54;27.16;99403.03;4974754;28;20411;-69
2022/06/07 10:39:15;;;;;;;1.73;0.45;;;;;;;22.63;26.95;99402.81;4976179;28;20038;-69
2022/06/07 10:41:52;;;;;;;3.13;0.52;;;;;;;22.71;27.07;99400.78;4976780;28;20425;-69
2022/06/07 10:44:29;;;;;;;8.60;1.10;;;;;;;22.77;27.89;99393.72;4975950;28;20058;-69
2022/06/07 10:46:55;;;;;;;2.05;0.90;;;;;;;22.83;27.49;99400.16;4976055;28;20047;-69
2022/06/07 10:49:49;;;;;;;1.75;0.68;;;;;;;22.84;27.83;99399.13;4976252;28;20446;-68
2022/06/07 10:52:21;;;;;;;1.67;0.50;;;;;;;22.88;27.60;99396.84;4975626;28;20504;-67
2022/06/07 10:54:46;;;;;;;;;;;;;;;22.86;27.50;99394.38;4976451;28;20035;-68
2022/06/07 10:57:21;;;;;;;4.72;0.70;;;;;;;22.91;27.15;99385.66;4975889;28;19914;-69
2022/06/07 10:59:50;;;;;;;2.17;0.50;;;;;;;22.92;27.02;99380.06;4975981;28;20041;-68
2022/06/07 11:02:46;;;;;;;1.17;0.47;;;;;;;22.92;26.65;99384.63;4975904;28;20043;-68
2022/06/07 11:11:10;;;;;;;4.18;0.82;;;;;;;22.92;27.53;99379.22;4975827;28;20081;-68
2022/06/07 11:14:00;;;;;;;2.65;0.80;;;;;;;22.97;26.81;99377.56;4975438;28;20466;-68
2022/06/07 11:16:35;;;;;;;3.13;0.82;;;;;;;22.94;26.95;99377.16;4975495;28;20382;-69
2022/06/07 11:19:03;;;;;;;0.77;0.50;;;;;;;22.94;27.38;99372.56;4975647;28;20043;-69
2022/06/07 11:21:36;;;;;;;3.17;1.20;;;;;;;22.99;27.13;99380.09;4982386;28;20030;-69
2022/06/07 11:24:18;;;;;;;2.00;0.93;;;;;;;23.02;26.79;99375.09;4994839;28;20437;-68
2022/06/07 11:26:50;;;;;;;3.15;0.73;;;;;;;23.05;26.60;99379.25;4965790;28;20042;-71
2022/06/07 11:29:19;;;;;;;3.97;0.57;;;;;;;23.06;26.34;99372.81;4974973;28;20097;-69
2022/06/07 11:31:45;;;;;;;4.22;1.08;;;;;;;23.04;26.26;99371.38;4966647;28;20469;-69
2022/06/07 11:34:29;;;;;;;3.65;0.70;;;;;;;23.04;26.09;99365.97;4975000;28;20093;-69
2022/06/07 11:37:01;;;;;;;1.77;0.60;;;;;;;23.00;26.37;99363.66;4972677;28;20101;-69
2022/06/07 11:39:52;;;;;;;1.98;0.47;;;;;;;22.99;26.34;99364.72;4974584;28;20085;-69
2022/06/07 11:42:21;;;;;;;2.83;0.63;;;;;;;22.96;26.18;99356.19;4974258;28;20065;-67
2022/06/07 11:45:18;;;;;;;5.75;0.60;;;;;;;22.92;25.94;99360.34;4974194;28;20047;-68
2022/06/07 11:47:43;;;;;;;2.45;0.40;;;;;;;22.89;26.09;99353.50;4963233;28;20043;-69
2022/06/07 11:50:51;;;;;;;1.70;0.70;;;;;;;22.92;25.89;99360.34;4966431;28;20449;-69
2022/06/07 11:53:33;;;;;;;1.65;0.63;;;;;;;22.92;26.30;99361.19;4947148;28;20049;-68
2022/06/07 11:56:30;;;;;;;3.75;0.60;;;;;;;22.96;26.33;99358.91;4968979;28;20038;-68
2022/06/07 11:58:59;;;;;;;3.15;0.75;;;;;;;22.97;26.51;99360.56;4967825;28;20031;-68
2022/06/07 12:01:34;;;;;;;2.40;0.70;;;;;;;23.02;26.31;99360.75;4973852;28;20129;-68
2022/06/07 12:04:28;;;;;;;2.47;0.52;;;;;;;23.04;26.30;99352.47;4973994;28;20173;-69
2022/06/07 12:06:57;;;;;;;1.13;0.77;;;;;;;23.01;26.85;99351.03;4963220;28;20125;-68
2022/06/07 12:09:23;;;;;;;4.35;0.68;;;;;;;23.03;26.20;99351.63;4968243;28;20409;-68
2022/06/07 12:11:49;;;;;;;3.67;0.55;;;;;;;23.04;26.71;99347.06;4975673;28;20075;-68
2022/06/07 12:14:23;;;;;;;2.58;0.70;;;;;;;23.09;27.32;99336.47;4971616;28;20591;-68